sensor_id;sensor_type;location;lat;lon;timestamp;pressure;altitude;pressure_sealevel;temperature;humidity
55486;BME280;49383;-25.924;28.194;2023-05-19T00:00:13;85099.84;;;19.52;50.23
55486;BME280;49383;-25.924;28.194;2023-05-19T00:02:37;85099.93;;;19.48;50.29
55486;BME280;49383;-25.924;28.194;2023-05-19T00:05:02;85098.44;;;19.60;50.08
55486;BME280;49383;-25.924;28.194;2023-05-19T00:07:30;85103.09;;;19.27;50.19
55486;BME280;49383;-25.924;28.194;2023-05-19T00:09:52;85103.75;;;19.50;50.11
55486;BME280;49383;-25.924;28.194;2023-05-19T00:12:17;85101.99;;;19.04;50.10
55486;BME280;49383;-25.924;28.194;2023-05-19T00:14:42;85094.18;;;19.51;49.95
55486;BME280;49383;-25.924;28.194;2023-05-19T00:17:08;85094.72;;;19.52;49.89
55486;BME280;49383;-25.924;28.194;2023-05-19T00:19:32;85094.26;;;19.07;49.88
55486;BME280;49383;-25.924;28.194;2023-05-19T00:21:57;85091.85;;;19.09;49.76
55486;BME280;49383;-25.924;28.194;2023-05-19T00:24:22;85087.50;;;19.09;49.72
55486;BME280;49383;-25.924;28.194;2023-05-19T00:26:47;85087.44;;;19.53;49.67
55486;BME280;49383;-25.924;28.194;2023-05-19T00:29:12;85087.81;;;19.49;49.69
55486;BME280;49383;-25.924;28.194;2023-05-19T00:31:37;85087.90;;;19.48;49.65
55486;BME280;49383;-25.924;28.194;2023-05-19T00:34:02;85085.34;;;19.05;49.53
55486;BME280;49383;-25.924;28.194;2023-05-19T00:36:27;85083.97;;;19.47;49.54
55486;BME280;49383;-25.924;28.194;2023-05-19T00:38:53;85083.11;;;19.48;49.44
55486;BME280;49383;-25.924;28.194;2023-05-19T00:41:18;85082.89;;;19.44;49.50
55486;BME280;49383;-25.924;28.194;2023-05-19T00:43:42;85078.93;;;19.42;49.49
55486;BME280;49383;-25.924;28.194;2023-05-19T00:46:07;85074.72;;;19.50;49.31
55486;BME280;49383;-25.924;28.194;2023-05-19T00:48:32;85077.54;;;19.26;49.31
55486;BME280;49383;-25.924;28.194;2023-05-19T00:50:59;85076.55;;;19.05;49.21
55486;BME280;49383;-25.924;28.194;2023-05-19T00:53:23;85072.78;;;19.05;49.15
55486;BME280;49383;-25.924;28.194;2023-05-19T00:55:48;85071.18;;;19.23;49.19
55486;BME280;49383;-25.924;28.194;2023-05-19T00:58:13;85067.21;;;19.02;49.20
55486;BME280;49383;-25.924;28.194;2023-05-19T01:00:38;85066.07;;;19.24;49.16
55486;BME280;49383;-25.924;28.194;2023-05-19T01:03:04;85061.48;;;19.47;49.10
55486;BME280;49383;-25.924;28.194;2023-05-19T01:05:28;85059.66;;;19.48;49.06
55486;BME280;49383;-25.924;28.194;2023-05-19T01:07:53;85061.92;;;19.20;49.17
55486;BME280;49383;-25.924;28.194;2023-05-19T01:10:18;85065.85;;;19.45;49.08
55486;BME280;49383;-25.924;28.194;2023-05-19T01:12:43;85067.80;;;19.22;49.05
55486;BME280;49383;-25.924;28.194;2023-05-19T01:15:09;85071.79;;;19.44;49.06
55486;BME280;49383;-25.924;28.194;2023-05-19T01:17:39;85071.03;;;19.44;49.07
55486;BME280;49383;-25.924;28.194;2023-05-19T01:20:05;85073.10;;;19.47;49.01
55486;BME280;49383;-25.924;28.194;2023-05-19T01:27:28;85065.27;;;18.91;49.16
55486;BME280;49383;-25.924;28.194;2023-05-19T01:29:44;85066.06;;;19.41;49.11
55486;BME280;49383;-25.924;28.194;2023-05-19T01:32:04;85065.87;;;19.38;49.15
55486;BME280;49383;-25.924;28.194;2023-05-19T01:34:30;85069.49;;;19.33;49.19
55486;BME280;49383;-25.924;28.194;2023-05-19T01:36:55;85071.46;;;19.08;49.32
55486;BME280;49383;-25.924;28.194;2023-05-19T01:39:19;85068.27;;;19.36;49.16
55486;BME280;49383;-25.924;28.194;2023-05-19T01:41:45;85066.86;;;19.07;49.21
55486;BME280;49383;-25.924;28.194;2023-05-19T01:44:09;85069.88;;;19.15;49.09
55486;BME280;49383;-25.924;28.194;2023-05-19T01:46:34;85064.96;;;19.35;49.06
55486;BME280;49383;-25.924;28.194;2023-05-19T01:48:59;85061.88;;;19.14;49.02
55486;BME280;49383;-25.924;28.194;2023-05-19T01:51:24;85063.82;;;18.94;48.90
55486;BME280;49383;-25.924;28.194;2023-05-19T01:53:49;85062.56;;;19.33;48.98
55486;BME280;49383;-25.924;28.194;2023-05-19T01:56:21;85060.83;;;19.17;48.84
55486;BME280;49383;-25.924;28.194;2023-05-19T01:58:43;85060.24;;;19.36;48.82
55486;BME280;49383;-25.924;28.194;2023-05-19T02:01:14;85065.01;;;19.13;48.77
55486;BME280;49383;-25.924;28.194;2023-05-19T02:03:41;85066.92;;;19.13;48.85
55486;BME280;49383;-25.924;28.194;2023-05-19T02:06:14;85065.29;;;19.42;48.70
55486;BME280;49383;-25.924;28.194;2023-05-19T02:08:24;85061.03;;;19.17;48.79
55486;BME280;49383;-25.924;28.194;2023-05-19T02:10:50;85058.23;;;19.32;48.92
55486;BME280;49383;-25.924;28.194;2023-05-19T02:13:11;85059.36;;;19.33;48.89
55486;BME280;49383;-25.924;28.194;2023-05-19T02:15:39;85054.31;;;18.88;48.87
55486;BME280;49383;-25.924;28.194;2023-05-19T02:18:00;85052.91;;;19.12;48.77
55486;BME280;49383;-25.924;28.194;2023-05-19T02:20:25;85054.12;;;19.27;48.75
55486;BME280;49383;-25.924;28.194;2023-05-19T02:22:50;85049.25;;;19.31;48.79
55486;BME280;49383;-25.924;28.194;2023-05-19T02:25:15;85050.77;;;19.30;48.76
55486;BME280;49383;-25.924;28.194;2023-05-19T02:27:41;85053.62;;;19.06;48.73
55486;BME280;49383;-25.924;28.194;2023-05-19T02:30:06;85051.72;;;19.27;48.73
55486;BME280;49383;-25.924;28.194;2023-05-19T02:32:30;85053.67;;;19.05;48.70
55486;BME280;49383;-25.924;28.194;2023-05-19T02:34:55;85051.27;;;19.27;48.67
55486;BME280;49383;-25.924;28.194;2023-05-19T02:37:20;85049.50;;;19.22;48.68
55486;BME280;49383;-25.924;28.194;2023-05-19T02:39:45;85050.19;;;19.06;48.54
55486;BME280;49383;-25.924;28.194;2023-05-19T02:42:10;85048.42;;;19.03;48.56
55486;BME280;49383;-25.924;28.194;2023-05-19T02:44:36;85045.26;;;19.24;48.54
55486;BME280;49383;-25.924;28.194;2023-05-19T02:47:00;85044.68;;;19.28;48.39
55486;BME280;49383;-25.924;28.194;2023-05-19T02:49:25;85035.85;;;19.23;48.40
55486;BME280;49383;-25.924;28.194;2023-05-19T02:51:51;85034.04;;;19.24;48.37
55486;BME280;49383;-25.924;28.194;2023-05-19T02:54:16;85035.92;;;19.24;48.48
55486;BME280;49383;-25.924;28.194;2023-05-19T02:56:42;85033.33;;;18.83;48.40
55486;BME280;49383;-25.924;28.194;2023-05-19T02:59:07;85032.88;;;19.29;48.33
55486;BME280;49383;-25.924;28.194;2023-05-19T03:01:33;85032.34;;;19.25;48.32
55486;BME280;49383;-25.924;28.194;2023-05-19T03:03:59;85033.08;;;19.19;48.38
55486;BME280;49383;-25.924;28.194;2023-05-19T03:06:24;85034.90;;;18.97;48.37
55486;BME280;49383;-25.924;28.194;2023-05-19T03:08:49;85038.63;;;19.25;48.15
55486;BME280;49383;-25.924;28.194;2023-05-19T03:11:14;85045.45;;;19.27;48.11
55486;BME280;49383;-25.924;28.194;2023-05-19T03:13:39;85049.27;;;19.00;48.11
55486;BME280;49383;-25.924;28.194;2023-05-19T03:16:04;85053.41;;;19.03;48.04
55486;BME280;49383;-25.924;28.194;2023-05-19T03:18:29;85055.93;;;19.23;48.00
55486;BME280;49383;-25.924;28.194;2023-05-19T03:20:54;85056.85;;;19.20;48.11
55486;BME280;49383;-25.924;28.194;2023-05-19T03:23:20;85055.46;;;19.21;48.03
55486;BME280;49383;-25.924;28.194;2023-05-19T03:25:44;85052.40;;;19.16;48.07
55486;BME280;49383;-25.924;28.194;2023-05-19T03:28:09;85056.67;;;19.17;48.04
55486;BME280;49383;-25.924;28.194;2023-05-19T03:30:34;85054.91;;;19.16;48.09
55486;BME280;49383;-25.924;28.194;2023-05-19T03:32:59;85056.52;;;18.69;48.09
55486;BME280;49383;-25.924;28.194;2023-05-19T03:35:24;85058.02;;;18.99;47.90
55486;BME280;49383;-25.924;28.194;2023-05-19T03:37:49;85053.39;;;19.22;47.83
55486;BME280;49383;-25.924;28.194;2023-05-19T03:40:15;85049.53;;;19.13;47.89
55486;BME280;49383;-25.924;28.194;2023-05-19T03:42:40;85046.82;;;19.13;47.86
55486;BME280;49383;-25.924;28.194;2023-05-19T03:45:05;85046.37;;;19.20;47.80
55486;BME280;49383;-25.924;28.194;2023-05-19T03:47:30;85045.34;;;19.14;47.85
55486;BME280;49383;-25.924;28.194;2023-05-19T03:49:55;85044.06;;;19.11;47.88
55486;BME280;49383;-25.924;28.194;2023-05-19T03:52:20;85050.60;;;18.73;47.81
55486;BME280;49383;-25.924;28.194;2023-05-19T03:54:45;85049.47;;;19.22;47.66
55486;BME280;49383;-25.924;28.194;2023-05-19T03:57:12;85052.06;;;18.95;47.72
55486;BME280;49383;-25.924;28.194;2023-05-19T03:59:36;85060.24;;;19.08;47.93
55486;BME280;49383;-25.924;28.194;2023-05-19T04:02:02;85062.00;;;19.14;47.39
55486;BME280;49383;-25.924;28.194;2023-05-19T04:04:27;85063.46;;;19.32;47.49
55486;BME280;49383;-25.924;28.194;2023-05-19T04:06:53;85066.77;;;19.18;47.75
55486;BME280;49383;-25.924;28.194;2023-05-19T04:09:18;85071.25;;;19.14;47.87
55486;BME280;49383;-25.924;28.194;2023-05-19T04:11:43;85075.09;;;18.90;47.80
55486;BME280;49383;-25.924;28.194;2023-05-19T04:14:09;85077.92;;;19.15;47.72
55486;BME280;49383;-25.924;28.194;2023-05-19T04:16:35;85084.67;;;19.12;47.72
55486;BME280;49383;-25.924;28.194;2023-05-19T04:19:01;85083.81;;;19.11;47.76
55486;BME280;49383;-25.924;28.194;2023-05-19T04:21:26;85086.24;;;19.13;47.62
55486;BME280;49383;-25.924;28.194;2023-05-19T04:23:51;85091.71;;;19.11;47.69
55486;BME280;49383;-25.924;28.194;2023-05-19T04:26:16;85097.78;;;19.08;47.58
55486;BME280;49383;-25.924;28.194;2023-05-19T04:28:42;85108.21;;;19.08;47.65
55486;BME280;49383;-25.924;28.194;2023-05-19T04:31:07;85115.24;;;19.09;47.65
55486;BME280;49383;-25.924;28.194;2023-05-19T04:33:32;85121.52;;;19.07;47.72
55486;BME280;49383;-25.924;28.194;2023-05-19T04:35:57;85123.45;;;19.11;47.65
55486;BME280;49383;-25.924;28.194;2023-05-19T04:38:22;85128.27;;;18.88;47.60
55486;BME280;49383;-25.924;28.194;2023-05-19T04:40:47;85134.04;;;19.14;47.59
55486;BME280;49383;-25.924;28.194;2023-05-19T04:43:13;85135.89;;;19.17;47.55
55486;BME280;49383;-25.924;28.194;2023-05-19T04:45:38;85133.71;;;19.10;47.58
55486;BME280;49383;-25.924;28.194;2023-05-19T04:48:04;85133.86;;;19.08;47.66
55486;BME280;49383;-25.924;28.194;2023-05-19T04:50:29;85136.38;;;19.10;47.62
55486;BME280;49383;-25.924;28.194;2023-05-19T04:52:55;85142.84;;;19.07;47.81
55486;BME280;49383;-25.924;28.194;2023-05-19T04:55:20;85151.04;;;19.06;48.03
55486;BME280;49383;-25.924;28.194;2023-05-19T04:57:45;85154.92;;;19.23;47.86
55486;BME280;49383;-25.924;28.194;2023-05-19T05:00:12;85158.32;;;19.12;48.35
55486;BME280;49383;-25.924;28.194;2023-05-19T05:02:37;85162.99;;;19.10;48.70
55486;BME280;49383;-25.924;28.194;2023-05-19T05:05:02;85163.82;;;19.14;48.86
55486;BME280;49383;-25.924;28.194;2023-05-19T05:07:27;85163.49;;;19.14;49.31
55486;BME280;49383;-25.924;28.194;2023-05-19T05:09:53;85166.39;;;19.16;49.83
55486;BME280;49383;-25.924;28.194;2023-05-19T05:12:20;85167.36;;;19.17;50.38
55486;BME280;49383;-25.924;28.194;2023-05-19T05:14:44;85170.84;;;19.30;50.94
55486;BME280;49383;-25.924;28.194;2023-05-19T05:17:11;85174.18;;;19.32;51.45
55486;BME280;49383;-25.924;28.194;2023-05-19T05:19:35;85172.34;;;19.27;52.08
55486;BME280;49383;-25.924;28.194;2023-05-19T05:22:00;85173.84;;;19.00;52.63
55486;BME280;49383;-25.924;28.194;2023-05-19T05:24:25;85177.85;;;19.57;52.90
55486;BME280;49383;-25.924;28.194;2023-05-19T05:26:51;85177.95;;;19.45;53.01
55486;BME280;49383;-25.924;28.194;2023-05-19T05:29:16;85180.73;;;19.33;53.21
55486;BME280;49383;-25.924;28.194;2023-05-19T05:31:41;85182.41;;;19.46;52.69
55486;BME280;49383;-25.924;28.194;2023-05-19T05:34:07;85186.44;;;19.68;52.82
55486;BME280;49383;-25.924;28.194;2023-05-19T05:36:32;85191.14;;;19.59;53.12
55486;BME280;49383;-25.924;28.194;2023-05-19T05:38:58;85194.50;;;19.90;53.50
55486;BME280;49383;-25.924;28.194;2023-05-19T05:41:24;85192.28;;;19.74;53.85
55486;BME280;49383;-25.924;28.194;2023-05-19T05:43:49;85196.60;;;20.19;54.71
55486;BME280;49383;-25.924;28.194;2023-05-19T05:46:15;85203.15;;;20.60;54.20
55486;BME280;49383;-25.924;28.194;2023-05-19T05:48:39;85207.40;;;20.21;53.73
55486;BME280;49383;-25.924;28.194;2023-05-19T05:51:07;85210.45;;;20.51;53.37
55486;BME280;49383;-25.924;28.194;2023-05-19T05:53:30;85209.62;;;20.84;52.38
55486;BME280;49383;-25.924;28.194;2023-05-19T05:55:55;85210.86;;;20.71;51.84
55486;BME280;49383;-25.924;28.194;2023-05-19T05:58:19;85220.68;;;20.69;51.81
55486;BME280;49383;-25.924;28.194;2023-05-19T06:00:44;85220.94;;;20.85;51.34
55486;BME280;49383;-25.924;28.194;2023-05-19T06:03:09;85226.84;;;21.08;51.11
55486;BME280;49383;-25.924;28.194;2023-05-19T06:05:34;85222.77;;;20.78;50.80
55486;BME280;49383;-25.924;28.194;2023-05-19T06:07:59;85225.06;;;21.45;50.56
55486;BME280;49383;-25.924;28.194;2023-05-19T06:10:24;85225.75;;;21.13;50.24
55486;BME280;49383;-25.924;28.194;2023-05-19T06:12:49;85226.00;;;21.15;50.50
55486;BME280;49383;-25.924;28.194;2023-05-19T06:15:15;85228.16;;;21.36;50.64
55486;BME280;49383;-25.924;28.194;2023-05-19T06:17:41;85232.78;;;21.28;51.20
55486;BME280;49383;-25.924;28.194;2023-05-19T06:20:08;85229.40;;;21.45;51.22
55486;BME280;49383;-25.924;28.194;2023-05-19T06:22:32;85232.70;;;21.49;50.98
55486;BME280;49383;-25.924;28.194;2023-05-19T06:24:59;85232.68;;;21.59;51.13
55486;BME280;49383;-25.924;28.194;2023-05-19T06:27:24;85231.58;;;21.49;51.46
55486;BME280;49383;-25.924;28.194;2023-05-19T06:29:50;85232.35;;;21.70;51.66
55486;BME280;49383;-25.924;28.194;2023-05-19T06:32:16;85236.58;;;21.82;50.98
55486;BME280;49383;-25.924;28.194;2023-05-19T06:34:42;85247.21;;;21.84;50.22
55486;BME280;49383;-25.924;28.194;2023-05-19T06:37:08;85255.76;;;21.72;49.72
55486;BME280;49383;-25.924;28.194;2023-05-19T06:39:33;85260.73;;;21.64;49.17
55486;BME280;49383;-25.924;28.194;2023-05-19T06:41:59;85258.69;;;21.66;48.94
55486;BME280;49383;-25.924;28.194;2023-05-19T06:44:25;85262.75;;;22.09;48.74
55486;BME280;49383;-25.924;28.194;2023-05-19T06:46:51;85265.16;;;21.72;48.89
55486;BME280;49383;-25.924;28.194;2023-05-19T06:49:16;85262.92;;;22.02;48.99
55486;BME280;49383;-25.924;28.194;2023-05-19T06:51:41;85263.47;;;22.21;50.51
55486;BME280;49383;-25.924;28.194;2023-05-19T06:54:07;85271.69;;;22.40;51.25
55486;BME280;49383;-25.924;28.194;2023-05-19T06:56:32;85269.27;;;22.38;51.10
55486;BME280;49383;-25.924;28.194;2023-05-19T06:58:57;85266.62;;;22.20;50.64
55486;BME280;49383;-25.924;28.194;2023-05-19T07:01:22;85271.08;;;22.32;50.91
55486;BME280;49383;-25.924;28.194;2023-05-19T07:03:48;85272.09;;;22.19;50.65
55486;BME280;49383;-25.924;28.194;2023-05-19T07:06:13;85269.12;;;22.29;49.97
55486;BME280;49383;-25.924;28.194;2023-05-19T07:08:39;85268.23;;;22.26;49.74
55486;BME280;49383;-25.924;28.194;2023-05-19T07:11:05;85268.76;;;22.43;49.34
55486;BME280;49383;-25.924;28.194;2023-05-19T07:13:30;85262.85;;;22.31;49.40
55486;BME280;49383;-25.924;28.194;2023-05-19T07:15:56;85263.37;;;22.29;49.12
55486;BME280;49383;-25.924;28.194;2023-05-19T07:18:22;85265.59;;;22.48;49.00
55486;BME280;49383;-25.924;28.194;2023-05-19T07:20:48;85267.65;;;22.47;48.83
55486;BME280;49383;-25.924;28.194;2023-05-19T07:23:13;85268.58;;;22.48;48.67
55486;BME280;49383;-25.924;28.194;2023-05-19T07:25:39;85270.86;;;22.47;48.54
55486;BME280;49383;-25.924;28.194;2023-05-19T07:28:05;85274.66;;;22.47;48.51
55486;BME280;49383;-25.924;28.194;2023-05-19T07:30:31;85277.56;;;22.83;48.36
55486;BME280;49383;-25.924;28.194;2023-05-19T07:32:56;85276.44;;;22.50;48.19
55486;BME280;49383;-25.924;28.194;2023-05-19T07:35:22;85272.50;;;22.51;48.19
55486;BME280;49383;-25.924;28.194;2023-05-19T07:37:48;85273.16;;;22.74;47.63
55486;BME280;49383;-25.924;28.194;2023-05-19T07:40:14;85275.00;;;22.54;47.90
55486;BME280;49383;-25.924;28.194;2023-05-19T07:42:40;85280.04;;;22.58;47.71
55486;BME280;49383;-25.924;28.194;2023-05-19T07:45:06;85285.22;;;22.69;47.40
55486;BME280;49383;-25.924;28.194;2023-05-19T07:47:31;85287.33;;;22.79;47.11
55486;BME280;49383;-25.924;28.194;2023-05-19T07:49:57;85294.08;;;22.75;47.47
55486;BME280;49383;-25.924;28.194;2023-05-19T07:52:23;85293.97;;;22.40;47.55
55486;BME280;49383;-25.924;28.194;2023-05-19T07:54:49;85292.50;;;22.36;47.52
55486;BME280;49383;-25.924;28.194;2023-05-19T07:57:14;85290.20;;;22.86;47.10
55486;BME280;49383;-25.924;28.194;2023-05-19T07:59:40;85290.55;;;22.58;46.95
55486;BME280;49383;-25.924;28.194;2023-05-19T08:02:07;85290.77;;;22.56;46.80
55486;BME280;49383;-25.924;28.194;2023-05-19T08:04:32;85292.36;;;22.59;47.12
55486;BME280;49383;-25.924;28.194;2023-05-19T08:06:58;85292.42;;;22.57;47.48
55486;BME280;49383;-25.924;28.194;2023-05-19T08:09:24;85291.10;;;22.38;47.62
55486;BME280;49383;-25.924;28.194;2023-05-19T08:11:49;85288.05;;;22.13;47.57
55486;BME280;49383;-25.924;28.194;2023-05-19T08:14:15;85286.79;;;22.40;47.04
55486;BME280;49383;-25.924;28.194;2023-05-19T08:16:41;85286.01;;;22.61;46.89
55486;BME280;49383;-25.924;28.194;2023-05-19T08:19:07;85284.19;;;22.75;46.55
55486;BME280;49383;-25.924;28.194;2023-05-19T08:21:33;85280.67;;;22.27;46.43
55486;BME280;49383;-25.924;28.194;2023-05-19T08:23:59;85280.27;;;22.79;45.94
55486;BME280;49383;-25.924;28.194;2023-05-19T08:26:24;85279.50;;;23.13;45.64
55486;BME280;49383;-25.924;28.194;2023-05-19T08:28:50;85280.09;;;22.65;45.52
55486;BME280;49383;-25.924;28.194;2023-05-19T08:31:16;85278.04;;;22.61;45.54
55486;BME280;49383;-25.924;28.194;2023-05-19T08:33:42;85275.83;;;22.84;45.03
55486;BME280;49383;-25.924;28.194;2023-05-19T08:36:08;85275.72;;;22.81;45.04
55486;BME280;49383;-25.924;28.194;2023-05-19T08:38:33;85275.54;;;22.96;44.68
55486;BME280;49383;-25.924;28.194;2023-05-19T08:40:59;85270.88;;;23.00;44.51
55486;BME280;49383;-25.924;28.194;2023-05-19T08:43:25;85268.12;;;23.02;44.35
55486;BME280;49383;-25.924;28.194;2023-05-19T08:45:52;85264.87;;;22.89;44.52
55486;BME280;49383;-25.924;28.194;2023-05-19T08:48:18;85267.49;;;22.99;44.18
55486;BME280;49383;-25.924;28.194;2023-05-19T08:50:49;85266.77;;;23.04;44.07
55486;BME280;49383;-25.924;28.194;2023-05-19T08:53:12;85260.40;;;23.21;43.61
55486;BME280;49383;-25.924;28.194;2023-05-19T08:55:39;85260.04;;;23.16;43.55
55486;BME280;49383;-25.924;28.194;2023-05-19T08:58:02;85257.04;;;23.20;43.40
55486;BME280;49383;-25.924;28.194;2023-05-19T09:00:26;85250.71;;;23.07;43.53
55486;BME280;49383;-25.924;28.194;2023-05-19T09:02:52;85247.26;;;23.27;43.13
55486;BME280;49383;-25.924;28.194;2023-05-19T09:05:18;85249.96;;;22.74;43.11
55486;BME280;49383;-25.924;28.194;2023-05-19T09:07:44;85247.48;;;23.08;43.16
55486;BME280;49383;-25.924;28.194;2023-05-19T09:10:09;85243.44;;;23.05;43.14
55486;BME280;49383;-25.924;28.194;2023-05-19T09:12:35;85244.09;;;22.97;43.30
55486;BME280;49383;-25.924;28.194;2023-05-19T09:15:01;85245.55;;;23.10;42.85
55486;BME280;49383;-25.924;28.194;2023-05-19T09:17:26;85244.06;;;23.46;42.59
55486;BME280;49383;-25.924;28.194;2023-05-19T09:19:52;85241.33;;;23.09;42.64
55486;BME280;49383;-25.924;28.194;2023-05-19T09:22:18;85241.98;;;22.98;42.69
55486;BME280;49383;-25.924;28.194;2023-05-19T09:24:45;85243.94;;;22.94;42.61
55486;BME280;49383;-25.924;28.194;2023-05-19T09:27:13;85237.77;;;22.82;42.71
55486;BME280;49383;-25.924;28.194;2023-05-19T09:29:36;85232.16;;;23.34;42.60
55486;BME280;49383;-25.924;28.194;2023-05-19T09:32:02;85228.12;;;23.21;42.78
55486;BME280;49383;-25.924;28.194;2023-05-19T09:34:27;85229.69;;;22.69;42.65
55486;BME280;49383;-25.924;28.194;2023-05-19T09:36:55;85225.36;;;23.08;42.72
55486;BME280;49383;-25.924;28.194;2023-05-19T09:39:20;85221.60;;;22.83;42.65
55486;BME280;49383;-25.924;28.194;2023-05-19T09:41:45;85213.67;;;22.78;42.89
55486;BME280;49383;-25.924;28.194;2023-05-19T09:44:14;85213.60;;;22.56;42.90
55486;BME280;49383;-25.924;28.194;2023-05-19T09:46:37;85206.45;;;22.85;42.71
55486;BME280;49383;-25.924;28.194;2023-05-19T09:49:07;85205.08;;;22.89;42.48
55486;BME280;49383;-25.924;28.194;2023-05-19T09:51:28;85201.90;;;22.53;42.60
55486;BME280;49383;-25.924;28.194;2023-05-19T09:53:55;85197.10;;;22.61;42.68
55486;BME280;49383;-25.924;28.194;2023-05-19T09:56:20;85197.29;;;22.41;42.90
55486;BME280;49383;-25.924;28.194;2023-05-19T09:58:46;85194.30;;;22.47;42.70
55486;BME280;49383;-25.924;28.194;2023-05-19T10:01:12;85191.31;;;22.30;42.91
55486;BME280;49383;-25.924;28.194;2023-05-19T10:03:38;85186.18;;;22.23;42.98
55486;BME280;49383;-25.924;28.194;2023-05-19T10:06:04;85179.63;;;22.15;42.97
55486;BME280;49383;-25.924;28.194;2023-05-19T10:08:30;85172.70;;;22.12;42.95
55486;BME280;49383;-25.924;28.194;2023-05-19T10:10:56;85171.98;;;22.06;43.14
55486;BME280;49383;-25.924;28.194;2023-05-19T10:13:21;85167.27;;;21.95;43.02
55486;BME280;49383;-25.924;28.194;2023-05-19T10:15:48;85163.71;;;20.76;42.97
55486;BME280;49383;-25.924;28.194;2023-05-19T10:18:15;85160.19;;;22.33;42.34
55486;BME280;49383;-25.924;28.194;2023-05-19T10:20:39;85152.04;;;21.96;42.78
55486;BME280;49383;-25.924;28.194;2023-05-19T10:23:03;85154.42;;;22.30;42.98
55486;BME280;49383;-25.924;28.194;2023-05-19T10:25:29;85150.85;;;22.18;43.08
55486;BME280;49383;-25.924;28.194;2023-05-19T10:27:57;85147.49;;;22.12;43.12
55486;BME280;49383;-25.924;28.194;2023-05-19T10:30:22;85140.90;;;21.98;43.20
55486;BME280;49383;-25.924;28.194;2023-05-19T10:32:45;85141.16;;;21.30;43.40
55486;BME280;49383;-25.924;28.194;2023-05-19T10:37:42;85129.87;;;21.77;43.04
55486;BME280;49383;-25.924;28.194;2023-05-19T10:39:59;85126.78;;;21.67;43.16
55486;BME280;49383;-25.924;28.194;2023-05-19T10:42:32;85123.47;;;21.58;43.15
55486;BME280;49383;-25.924;28.194;2023-05-19T10:44:57;85123.34;;;21.61;43.03
55486;BME280;49383;-25.924;28.194;2023-05-19T10:47:13;85115.97;;;21.67;42.80
55486;BME280;49383;-25.924;28.194;2023-05-19T10:49:39;85114.97;;;21.59;42.80
55486;BME280;49383;-25.924;28.194;2023-05-19T10:56:56;85093.86;;;21.53;42.47
55486;BME280;49383;-25.924;28.194;2023-05-19T11:01:44;85089.96;;;21.65;42.41
55486;BME280;49383;-25.924;28.194;2023-05-19T11:04:10;85084.34;;;21.37;42.40
55486;BME280;49383;-25.924;28.194;2023-05-19T11:06:35;85089.26;;;21.32;42.33
55486;BME280;49383;-25.924;28.194;2023-05-19T11:09:01;85086.53;;;21.29;42.30
55486;BME280;49383;-25.924;28.194;2023-05-19T11:11:25;85084.94;;;21.53;42.11
55486;BME280;49383;-25.924;28.194;2023-05-19T11:13:51;85076.38;;;21.36;41.90
55486;BME280;49383;-25.924;28.194;2023-05-19T11:16:18;85072.21;;;21.51;41.87
55486;BME280;49383;-25.924;28.194;2023-05-19T11:18:40;85077.26;;;21.39;41.68
55486;BME280;49383;-25.924;28.194;2023-05-19T11:21:05;85069.62;;;21.26;41.74
55486;BME280;49383;-25.924;28.194;2023-05-19T11:23:33;85065.47;;;21.31;41.60
55486;BME280;49383;-25.924;28.194;2023-05-19T11:25:55;85059.80;;;21.67;41.70
55486;BME280;49383;-25.924;28.194;2023-05-19T11:28:21;85057.24;;;21.36;41.65
55486;BME280;49383;-25.924;28.194;2023-05-19T11:30:46;85065.77;;;21.08;41.64
55486;BME280;49383;-25.924;28.194;2023-05-19T11:33:10;85061.86;;;21.37;41.43
55486;BME280;49383;-25.924;28.194;2023-05-19T11:35:35;85063.36;;;21.58;41.38
55486;BME280;49383;-25.924;28.194;2023-05-19T11:38:01;85056.67;;;21.25;41.40
55486;BME280;49383;-25.924;28.194;2023-05-19T11:40:26;85054.99;;;21.31;41.13
55486;BME280;49383;-25.924;28.194;2023-05-19T11:42:50;85063.25;;;21.24;41.13
55486;BME280;49383;-25.924;28.194;2023-05-19T11:45:15;85067.87;;;21.57;40.92
55486;BME280;49383;-25.924;28.194;2023-05-19T11:47:40;85055.93;;;21.20;40.98
55486;BME280;49383;-25.924;28.194;2023-05-19T11:50:06;85050.71;;;20.74;40.89
55486;BME280;49383;-25.924;28.194;2023-05-19T11:52:30;85050.82;;;21.15;40.84
55486;BME280;49383;-25.924;28.194;2023-05-19T11:54:55;85061.32;;;21.12;40.82
55486;BME280;49383;-25.924;28.194;2023-05-19T11:57:20;85058.07;;;21.19;40.59
55486;BME280;49383;-25.924;28.194;2023-05-19T11:59:45;85059.71;;;21.44;40.47
55486;BME280;49383;-25.924;28.194;2023-05-19T12:02:16;85065.28;;;20.96;40.33
55486;BME280;49383;-25.924;28.194;2023-05-19T12:04:35;85056.00;;;21.37;40.35
55486;BME280;49383;-25.924;28.194;2023-05-19T12:07:00;85054.55;;;21.22;39.98
55486;BME280;49383;-25.924;28.194;2023-05-19T12:09:28;85054.49;;;21.12;40.07
55486;BME280;49383;-25.924;28.194;2023-05-19T12:11:51;85052.33;;;21.21;39.80
55486;BME280;49383;-25.924;28.194;2023-05-19T12:14:16;85046.59;;;21.19;39.74
55486;BME280;49383;-25.924;28.194;2023-05-19T12:16:40;85049.47;;;21.49;39.60
55486;BME280;49383;-25.924;28.194;2023-05-19T12:19:05;85054.61;;;20.91;39.66
55486;BME280;49383;-25.924;28.194;2023-05-19T12:21:31;85052.98;;;21.17;39.56
55486;BME280;49383;-25.924;28.194;2023-05-19T12:23:56;85052.65;;;20.98;39.38
55486;BME280;49383;-25.924;28.194;2023-05-19T12:26:21;85055.01;;;20.94;39.34
55486;BME280;49383;-25.924;28.194;2023-05-19T12:28:46;85057.84;;;20.83;39.15
55486;BME280;49383;-25.924;28.194;2023-05-19T12:31:11;85060.46;;;21.52;39.05
55486;BME280;49383;-25.924;28.194;2023-05-19T12:33:36;85056.57;;;21.40;39.14
55486;BME280;49383;-25.924;28.194;2023-05-19T12:36:01;85055.77;;;21.04;39.17
55486;BME280;49383;-25.924;28.194;2023-05-19T12:38:26;85053.21;;;21.34;39.02
55486;BME280;49383;-25.924;28.194;2023-05-19T12:40:51;85055.94;;;21.35;38.98
55486;BME280;49383;-25.924;28.194;2023-05-19T12:43:20;85049.68;;;21.09;38.93